Terminal Aerodrome Forecast
Issued by NWS Tallahassee, FL

Home | Current Version | Previous Version | Text Only | Print | Product List | Glossary On
Versions: 1 2 3 4 5 6 7 8 9 10 11 12 13 14 15 16 17 18 19 20
187
FTUS42 KTAE 242324
TAFTLH
TAF
KTLH 242324Z 2500/2524 24004KT P6SM FEW050 SCT100
     FM250800 25004KT 2SM BR OVC004
     FM251400 29009KT P6SM BKN015
     FM251600 31010G15KT P6SM BKN035=

USA.gov is the U.S. government's official web portal to all federal, state and local government web resources and services.